Seven Sisters, Texas
Current Conditions -  °F | °C
As of 4:58 PM on Tuesday 25 Nov 2014 (Local Time) from KNMT Reporting Station
Clear Clear  
Wind Chill: 68°   Ceiling: Unl
Heat Index: 68°   Visibility: NA
Dew Point: 17°   Wind: 9mph
Humidity: 14%   Direction: 270°W
Pressure: 30.21"   Gusts: NA
Location:  27.9023°N, 98.6357°W
Report Text: KNMT 252258Z AUTO 27008KT CLR 20/M08 A3021 RMK AO2 SLP110 T02001083 PNO $
Loading
Personal Weather Stations






























Interactive Weather Map New forecast layout! Learn more

10-Day Weather Forecast

Advertisements
Track Severe Weather on mobile